Time;durP1;ratioP1;P1;durP2;ratioP2;P2;SDS_P1;SDS_P2;PMS_P1;PMS_P2;Temp;Humidity;BMP_temperature;BMP_pressure;BME280_temperature;BME280_humidity;BME280_pressure;Samples;Min_cycle;Max_cycle;Signal;HPM_P1;HPM_P2
2022/10/08 00:02:13;;;;;;;13.23;3.40;;;;;;;9.14;93.96;101470.59;5071115;28;20028;-71
2022/10/08 00:04:39;;;;;;;8.35;3.40;;;;;;;9.13;94.10;101474.13;5054569;28;20131;-71
2022/10/08 00:07:05;;;;;;;9.90;3.17;;;;;;;9.12;94.32;101471.69;5065062;28;20032;-71
2022/10/08 00:09:30;;;;;;;7.30;3.42;;;;;;;9.09;93.92;101474.53;5062483;28;20033;-70
2022/10/08 00:11:56;;;;;;;13.70;4.18;;;;;;;9.05;93.81;101471.38;5062657;28;20032;-70
2022/10/08 00:14:22;;;;;;;12.13;3.53;;;;;;;9.02;93.94;101465.63;5058485;28;20032;-70
2022/10/08 00:16:47;;;;;;;11.07;2.95;;;;;;;8.99;94.24;101469.31;5060584;28;20039;-70
2022/10/08 00:19:15;;;;;;;11.40;3.20;;;;;;;8.96;94.24;101472.97;5058150;28;20033;-70
2022/10/08 00:21:42;;;;;;;13.88;3.70;;;;;;;8.95;94.44;101471.34;5059208;28;20516;-71
2022/10/08 00:24:12;;;;;;;11.65;3.42;;;;;;;8.94;94.34;101464.50;5053886;28;20043;-71
2022/10/08 00:26:37;;;;;;;16.13;4.07;;;;;;;8.95;93.94;101463.56;5074201;28;20044;-70
2022/10/08 00:29:04;;;;;;;10.65;3.35;;;;;;;8.92;94.16;101458.66;5060203;28;20028;-70
2022/10/08 00:31:34;;;;;;;13.43;3.38;;;;;;;8.88;94.64;101456.47;5057843;28;20046;-70
2022/10/08 00:34:04;;;;;;;18.55;3.72;;;;;;;8.91;94.64;101456.19;5061578;28;20120;-70
2022/10/08 00:36:31;;;;;;;8.93;2.95;;;;;;;8.85;94.83;101446.38;5060658;28;20053;-71
2022/10/08 00:38:59;;;;;;;9.93;2.80;;;;;;;8.82;94.94;101451.81;5064014;28;20024;-70
2022/10/08 00:41:28;;;;;;;8.25;2.85;;;;;;;8.79;95.15;101449.47;5064088;28;20725;-70
2022/10/08 00:43:56;;;;;;;13.40;3.25;;;;;;;8.81;95.44;101448.38;5056648;28;20029;-71
2022/10/08 00:46:42;;;;;;;9.40;2.60;;;;;;;8.79;95.62;101439.13;5062010;28;20041;-70
2022/10/08 00:49:10;;;;;;;11.32;3.83;;;;;;;8.75;95.95;101441.97;5060452;28;20021;-71
2022/10/08 00:51:40;;;;;;;9.98;2.90;;;;;;;8.76;96.15;101443.63;5061666;28;20052;-70
2022/10/08 00:54:06;;;;;;;6.72;2.30;;;;;;;8.76;96.65;101445.38;5060549;28;20111;-70
2022/10/08 00:56:34;;;;;;;11.65;2.75;;;;;;;8.75;96.61;101444.56;5062457;28;20162;-71
2022/10/08 00:59:01;;;;;;;16.50;3.03;;;;;;;8.76;96.83;101435.84;5068859;28;20064;-70
2022/10/08 01:01:28;;;;;;;13.73;2.63;;;;;;;8.81;97.03;101432.06;5063638;28;20028;-70
2022/10/08 01:03:55;;;;;;;11.15;2.13;;;;;;;8.88;97.28;101434.00;5059301;28;20036;-71
2022/10/08 01:06:30;;;;;;;8.98;2.60;;;;;;;8.87;97.14;101441.88;5060072;28;20047;-70
2022/10/08 01:09:04;;;;;;;12.38;2.53;;;;;;;8.87;97.32;101429.78;5048834;28;20035;-71
2022/10/08 01:11:46;;;;;;;7.93;2.40;;;;;;;8.87;97.20;101426.38;5059889;28;20546;-70
2022/10/08 01:14:38;;;;;;;10.63;2.88;;;;;;;8.88;97.33;101421.06;5056157;28;20044;-70
2022/10/08 01:17:25;;;;;;;19.30;2.55;;;;;;;8.94;97.30;101424.91;5057527;28;20060;-70
2022/10/08 01:19:54;;;;;;;10.88;2.30;;;;;;;8.90;97.44;101423.53;5064750;28;20051;-70
2022/10/08 01:22:36;;;;;;;12.05;2.13;;;;;;;8.92;97.08;101425.03;5062383;28;20500;-71
2022/10/08 01:25:32;;;;;;;7.53;2.63;;;;;;;8.87;97.27;101436.72;5062901;28;20709;-70
2022/10/08 01:28:14;;;;;;;14.93;2.50;;;;;;;8.92;98.02;101429.38;5062010;28;20178;-71
2022/10/08 01:30:48;;;;;;;8.98;2.38;;;;;;;8.94;97.71;101433.47;5061799;28;20118;-71
2022/10/08 01:33:21;;;;;;;9.10;2.50;;;;;;;8.98;98.18;101430.63;5079913;28;20400;-71
2022/10/08 01:35:55;;;;;;;7.97;2.08;;;;;;;9.02;98.27;101434.59;5061640;28;20082;-71
2022/10/08 01:38:24;;;;;;;16.20;3.38;;;;;;;9.09;98.34;101440.88;5067450;28;20028;-70
2022/10/08 01:40:51;;;;;;;9.73;1.80;;;;;;;9.11;98.50;101433.81;5062907;28;20044;-70
2022/10/08 01:43:20;;;;;;;8.48;2.50;;;;;;;9.19;98.10;101423.63;5067409;28;20120;-70
2022/10/08 01:45:53;;;;;;;8.82;2.33;;;;;;;9.17;98.13;101430.69;5068910;28;20025;-70
2022/10/08 01:48:27;;;;;;;8.18;1.85;;;;;;;9.13;98.00;101424.16;5065654;28;20106;-70
2022/10/08 01:50:58;;;;;;;10.85;1.90;;;;;;;9.13;98.31;101419.78;5059288;28;20037;-70
2022/10/08 01:53:32;;;;;;;9.63;1.92;;;;;;;9.25;97.96;101423.13;5066839;28;20048;-70
2022/10/08 01:56:02;;;;;;;8.13;2.30;;;;;;;9.31;97.77;101425.16;5065628;28;20051;-70
2022/10/08 01:58:45;;;;;;;7.43;2.83;;;;;;;9.44;97.53;101422.34;5060423;28;20410;-70
2022/10/08 02:01:26;;;;;;;15.25;2.58;;;;;;;9.42;97.74;101423.41;5056676;28;20060;-70
2022/10/08 02:06:43;;;;;;;12.55;2.20;;;;;;;9.37;97.79;101415.25;5059333;28;20467;-70
2022/10/08 02:09:09;;;;;;;7.53;2.53;;;;;;;9.38;97.97;101419.44;5055742;28;20043;-70
2022/10/08 02:11:34;;;;;;;15.73;2.75;;;;;;;9.48;97.95;101418.53;5061877;28;20067;-70
2022/10/08 02:14:01;;;;;;;8.43;1.90;;;;;;;9.43;98.25;101417.28;5064261;28;20028;-70
2022/10/08 02:16:28;;;;;;;8.45;2.53;;;;;;;9.44;98.69;101419.75;5057723;28;20033;-70
2022/10/08 02:18:58;;;;;;;9.07;2.10;;;;;;;9.51;98.35;101418.28;5063210;28;20113;-70
2022/10/08 02:21:27;;;;;;;9.52;3.80;;;;;;;9.57;98.07;101414.31;5077535;28;20052;-71
2022/10/08 02:24:10;;;;;;;15.23;2.70;;;;;;;9.58;98.32;101415.94;5063085;28;20131;-70
2022/10/08 02:26:46;;;;;;;12.85;2.58;;;;;;;9.62;98.82;101406.16;5058501;28;20024;-70
2022/10/08 02:29:35;;;;;;;12.48;2.38;;;;;;;9.89;98.17;101408.91;5078753;28;20049;-71
2022/10/08 02:32:22;;;;;;;10.85;2.10;;;;;;;9.80;97.84;101404.53;5059029;28;20033;-70
2022/10/08 02:35:18;;;;;;;11.80;2.05;;;;;;;9.84;98.24;101400.72;5057707;28;20166;-71
2022/10/08 02:38:00;;;;;;;8.23;2.05;;;;;;;9.91;98.53;101406.16;5060998;28;20122;-71
2022/10/08 02:40:29;;;;;;;12.68;3.05;;;;;;;10.04;97.76;101404.13;5062221;28;20032;-71
2022/10/08 02:42:59;;;;;;;15.48;2.50;;;;;;;10.19;97.54;101403.66;5065829;28;20028;-70
2022/10/08 02:45:41;;;;;;;9.32;2.22;;;;;;;10.16;97.37;101409.16;5066977;28;20044;-70
2022/10/08 02:48:17;;;;;;;10.93;1.92;;;;;;;10.29;97.57;101414.88;5060959;28;20021;-71
2022/10/08 02:50:46;;;;;;;13.77;2.05;;;;;;;10.23;97.72;101418.03;5064783;28;20105;-74
2022/10/08 02:53:17;;;;;;;11.63;3.08;;;;;;;10.22;97.68;101411.19;5063720;28;20028;-71
2022/10/08 02:56:10;;;;;;;17.35;2.45;;;;;;;10.21;98.08;101427.69;5065051;28;20028;-70
2022/10/08 02:58:36;;;;;;;;;;;;;;;10.32;98.40;101433.59;5067567;28;20469;-70
2022/10/08 03:01:27;;;;;;;10.73;2.03;;;;;;;10.34;99.15;101446.41;5075901;28;19999;-70
2022/10/08 03:04:22;;;;;;;10.95;2.47;;;;;;;10.36;100.00;101447.09;5059227;28;20037;-71
2022/10/08 03:06:51;;;;;;;14.27;2.13;;;;;;;10.28;100.00;101447.75;5053009;28;20121;-71
2022/10/08 03:09:18;;;;;;;20.60;3.35;;;;;;;10.33;100.00;101448.16;5049933;28;20024;-72
2022/10/08 03:11:44;;;;;;;13.45;2.33;;;;;;;10.45;100.00;101451.44;5066159;28;20047;-72
2022/10/08 03:14:13;;;;;;;11.50;2.45;;;;;;;10.46;100.00;101454.84;5074144;28;20037;-72
2022/10/08 03:16:41;;;;;;;5.53;2.20;;;;;;;10.46;100.00;101442.69;5068950;28;20051;-72
2022/10/08 03:19:10;;;;;;;10.27;2.10;;;;;;;10.35;100.00;101452.41;5076892;28;20520;-73
2022/10/08 03:21:38;;;;;;;18.42;2.97;;;;;;;10.32;100.00;101464.69;5061325;28;20043;-72
2022/10/08 03:24:13;;;;;;;11.70;3.53;;;;;;;10.21;100.00;101453.59;5066445;28;20041;-72
2022/10/08 03:26:38;;;;;;;10.02;2.50;;;;;;;10.28;100.00;101454.69;5062966;28;20052;-73
2022/10/08 03:29:04;;;;;;;11.90;2.35;;;;;;;10.21;100.00;101457.03;5056243;28;20032;-72
2022/10/08 03:31:30;;;;;;;14.60;2.20;;;;;;;10.12;100.00;101457.84;5063406;28;20052;-72
2022/10/08 03:33:56;;;;;;;20.98;2.97;;;;;;;10.13;100.00;101470.66;5064878;28;20586;-72
2022/10/08 03:36:23;;;;;;;9.82;2.78;;;;;;;10.10;100.00;101464.94;5065837;28;20028;-72
2022/10/08 03:38:49;;;;;;;14.80;2.80;;;;;;;10.10;100.00;101472.72;5058109;28;20040;-72
2022/10/08 03:41:16;;;;;;;17.67;2.90;;;;;;;10.30;100.00;101469.19;5065413;28;20036;-73
2022/10/08 03:43:41;;;;;;;14.63;3.05;;;;;;;10.19;100.00;101474.50;5066502;28;20122;-72
2022/10/08 03:46:07;;;;;;;12.57;2.85;;;;;;;10.21;100.00;101475.16;5047074;28;20037;-72
2022/10/08 03:48:33;;;;;;;11.05;2.63;;;;;;;10.19;100.00;101477.09;5057854;28;20048;-72
2022/10/08 03:51:09;;;;;;;12.70;2.97;;;;;;;10.23;100.00;101480.22;5044115;28;20040;-72
2022/10/08 03:53:37;;;;;;;18.17;3.42;;;;;;;10.28;100.00;101488.38;5061149;28;20040;-72
2022/10/08 03:56:05;;;;;;;12.13;2.88;;;;;;;10.35;100.00;101484.31;5057774;28;20047;-74
2022/10/08 03:58:31;;;;;;;25.67;3.08;;;;;;;10.33;100.00;101483.66;5052027;28;20082;-73
2022/10/08 04:00:58;;;;;;;10.98;3.33;;;;;;;10.41;100.00;101483.75;5065582;28;20389;-73
2022/10/08 04:03:24;;;;;;;17.75;2.92;;;;;;;10.29;100.00;101480.47;5056792;28;20029;-73
2022/10/08 04:05:50;;;;;;;12.57;3.20;;;;;;;10.31;100.00;101488.97;5059424;28;20060;-74
2022/10/08 04:08:15;;;;;;;13.73;3.58;;;;;;;10.28;100.00;101488.38;5054572;28;20056;-73
2022/10/08 04:10:41;;;;;;;19.23;4.68;;;;;;;10.31;100.00;101488.16;5052579;28;20907;-73
2022/10/08 04:13:06;;;;;;;12.77;3.33;;;;;;;10.40;100.00;101499.47;5059198;28;20304;-74
2022/10/08 04:15:32;;;;;;;12.20;3.53;;;;;;;10.33;100.00;101488.84;5048082;28;20032;-73
2022/10/08 04:17:57;;;;;;;13.93;3.10;;;;;;;10.39;100.00;101497.84;5038172;28;20463;-74
2022/10/08 04:20:23;;;;;;;14.82;3.05;;;;;;;10.40;100.00;101505.47;5052441;28;20412;-72
2022/10/08 04:22:49;;;;;;;14.05;3.15;;;;;;;10.35;100.00;101504.25;5065004;28;20036;-74
2022/10/08 04:25:14;;;;;;;14.93;3.35;;;;;;;10.30;100.00;101508.09;5056798;28;20029;-73
2022/10/08 04:27:40;;;;;;;14.23;3.45;;;;;;;10.26;100.00;101505.84;5077853;28;20155;-74
2022/10/08 04:30:06;;;;;;;10.60;3.10;;;;;;;10.31;100.00;101506.28;5044973;28;20547;-73
2022/10/08 04:32:31;;;;;;;10.35;3.70;;;;;;;10.24;100.00;101495.63;5054812;28;20036;-73
2022/10/08 04:34:57;;;;;;;18.05;3.58;;;;;;;10.27;100.00;101505.72;5061670;28;20044;-73
2022/10/08 04:37:23;;;;;;;12.02;3.38;;;;;;;10.33;100.00;101509.56;5085252;28;20028;-73
2022/10/08 04:39:48;;;;;;;20.55;4.40;;;;;;;10.32;100.00;101511.34;5071707;28;20037;-74
2022/10/08 04:42:13;;;;;;;14.00;4.00;;;;;;;10.30;100.00;101507.22;5053380;28;20036;-73
2022/10/08 04:44:39;;;;;;;10.38;4.32;;;;;;;10.33;100.00;101502.59;5061111;28;20047;-73
2022/10/08 04:47:04;;;;;;;12.80;4.45;;;;;;;10.38;100.00;101503.97;5061218;28;20047;-74
2022/10/08 04:49:30;;;;;;;11.20;4.50;;;;;;;10.39;100.00;101513.38;5057530;28;20100;-72
2022/10/08 04:51:55;;;;;;;12.90;4.93;;;;;;;10.41;100.00;101511.47;5056842;28;20037;-72
2022/10/08 04:54:21;;;;;;;16.00;4.72;;;;;;;10.35;100.00;101505.06;5055802;28;20036;-72
2022/10/08 04:56:46;;;;;;;14.75;5.20;;;;;;;10.34;100.00;101508.63;5058087;28;20085;-72
2022/10/08 04:59:11;;;;;;;13.63;5.65;;;;;;;10.30;100.00;101512.38;5057451;28;20508;-73
2022/10/08 05:01:37;;;;;;;13.80;5.35;;;;;;;10.29;100.00;101511.59;5046364;28;20399;-73
2022/10/08 05:04:02;;;;;;;17.35;5.95;;;;;;;10.27;100.00;101521.28;5062778;28;20512;-72
2022/10/08 05:06:30;;;;;;;15.05;5.95;;;;;;;10.27;100.00;101518.69;5072760;28;20033;-73
2022/10/08 05:08:57;;;;;;;21.60;5.35;;;;;;;10.37;100.00;101529.06;5061938;28;20369;-73
2022/10/08 05:11:24;;;;;;;14.98;5.40;;;;;;;10.39;100.00;101537.53;5063405;28;20489;-72
2022/10/08 05:13:52;;;;;;;14.00;5.13;;;;;;;10.35;100.00;101531.00;5055755;28;20023;-72
2022/10/08 05:16:18;;;;;;;15.98;4.75;;;;;;;10.43;100.00;101533.69;5059426;28;20198;-72
2022/10/08 05:18:44;;;;;;;12.10;4.40;;;;;;;10.35;100.00;101543.13;5056053;28;20039;-73
2022/10/08 05:21:12;;;;;;;11.75;4.47;;;;;;;10.31;100.00;101548.59;5057508;28;20032;-73
2022/10/08 05:23:38;;;;;;;13.68;4.30;;;;;;;10.39;100.00;101552.28;5056175;28;20500;-72
2022/10/08 05:26:16;;;;;;;11.52;4.03;;;;;;;10.33;100.00;101549.25;5052614;28;20076;-72
2022/10/08 05:28:42;;;;;;;16.10;4.40;;;;;;;10.33;100.00;101556.22;5062771;28;20079;-72
2022/10/08 05:31:08;;;;;;;12.38;5.15;;;;;;;10.37;100.00;101556.78;5056748;28;20099;-73
2022/10/08 05:33:35;;;;;;;13.18;4.72;;;;;;;10.42;100.00;101562.38;5059246;28;20028;-72
2022/10/08 05:36:05;;;;;;;16.27;5.75;;;;;;;10.37;100.00;101561.97;5065093;28;20038;-73
2022/10/08 05:38:31;;;;;;;15.50;4.57;;;;;;;10.37;100.00;101567.16;5060260;28;20049;-72
2022/10/08 05:41:15;;;;;;;18.73;5.88;;;;;;;10.47;100.00;101573.16;5059264;28;20032;-72
2022/10/08 05:43:41;;;;;;;12.45;4.65;;;;;;;10.37;100.00;101565.38;5054512;28;20036;-73
2022/10/08 05:46:07;;;;;;;15.95;6.15;;;;;;;10.37;100.00;101572.34;5056334;28;20052;-73
2022/10/08 05:48:33;;;;;;;15.18;4.80;;;;;;;10.43;100.00;101580.38;5057433;28;20033;-73
2022/10/08 05:51:05;;;;;;;13.88;4.85;;;;;;;10.42;100.00;101580.53;5058507;28;20051;-73
2022/10/08 05:53:33;;;;;;;18.67;4.80;;;;;;;10.45;100.00;101577.66;5077555;28;20033;-72
2022/10/08 05:56:04;;;;;;;12.68;4.57;;;;;;;10.41;100.00;101578.88;5058689;28;20024;-73
2022/10/08 05:58:31;;;;;;;7.85;4.38;;;;;;;10.39;100.00;101583.38;5058030;28;20037;-73
2022/10/08 06:01:01;;;;;;;14.13;6.80;;;;;;;10.44;100.00;101584.63;5050898;28;20048;-73
2022/10/08 06:03:27;;;;;;;16.33;4.85;;;;;;;10.48;100.00;101590.34;5088150;28;20467;-72
2022/10/08 06:05:53;;;;;;;10.85;5.70;;;;;;;10.54;100.00;101595.00;5059922;28;20431;-72
2022/10/08 06:08:20;;;;;;;12.43;5.70;;;;;;;10.47;100.00;101599.91;5056462;28;20016;-72
2022/10/08 06:10:53;;;;;;;15.57;5.60;;;;;;;10.50;100.00;101602.22;5052170;28;20064;-72
2022/10/08 06:13:20;;;;;;;19.38;6.93;;;;;;;10.46;100.00;101607.81;5077613;28;20040;-74
2022/10/08 06:16:07;;;;;;;16.88;7.63;;;;;;;10.54;100.00;101614.94;5056681;28;20089;-73
2022/10/08 06:18:35;;;;;;;17.52;7.85;;;;;;;10.67;100.00;101621.47;5057507;28;20039;-72
2022/10/08 06:21:07;;;;;;;19.80;9.20;;;;;;;10.70;100.00;101617.81;5066696;28;20029;-72
2022/10/08 06:23:33;;;;;;;24.40;10.25;;;;;;;10.66;100.00;101632.81;5053204;28;20123;-72
2022/10/08 06:26:08;;;;;;;22.52;9.77;;;;;;;10.67;100.00;101631.03;5074049;28;20036;-73
2022/10/08 06:28:35;;;;;;;17.00;9.20;;;;;;;10.61;100.00;101640.19;5071950;28;20043;-73
2022/10/08 06:31:01;;;;;;;25.63;11.75;;;;;;;10.85;100.00;101649.31;5053400;28;20428;-73
2022/10/08 06:33:27;;;;;;;30.42;12.82;;;;;;;10.76;100.00;101645.78;5058415;28;20032;-73
2022/10/08 06:35:53;;;;;;;26.50;13.10;;;;;;;10.77;100.00;101649.19;5059671;28;20567;-73
2022/10/08 06:38:19;;;;;;;31.23;14.65;;;;;;;10.91;100.00;101651.38;5060010;28;20060;-74
2022/10/08 06:40:45;;;;;;;32.03;14.68;;;;;;;10.96;100.00;101649.16;5075163;28;20122;-74
2022/10/08 06:43:16;;;;;;;38.95;18.65;;;;;;;10.84;100.00;101658.88;5062748;28;20041;-73
2022/10/08 06:45:43;;;;;;;28.60;15.60;;;;;;;10.92;100.00;101658.19;5055996;28;20044;-74
2022/10/08 06:48:09;;;;;;;32.10;15.85;;;;;;;10.98;100.00;101664.59;5055093;28;20074;-73
2022/10/08 06:50:36;;;;;;;45.78;18.42;;;;;;;11.01;100.00;101669.53;5055051;28;20049;-73
2022/10/08 06:53:03;;;;;;;36.30;17.92;;;;;;;11.05;100.00;101673.50;5088544;28;20042;-74
2022/10/08 06:55:28;;;;;;;38.80;16.67;;;;;;;10.97;100.00;101676.78;5089403;28;20119;-73
2022/10/08 06:57:54;;;;;;;37.25;16.60;;;;;;;10.97;100.00;101678.56;5066258;28;20032;-74
2022/10/08 07:00:20;;;;;;;36.10;17.33;;;;;;;11.06;100.00;101688.13;5061710;28;20039;-72
2022/10/08 07:02:45;;;;;;;38.20;17.52;;;;;;;11.10;100.00;101694.66;5060312;28;20111;-73
2022/10/08 07:05:11;;;;;;;39.10;18.17;;;;;;;11.16;100.00;101698.50;5058753;28;20036;-73
2022/10/08 07:07:36;;;;;;;38.88;18.45;;;;;;;11.14;100.00;101697.81;5061337;28;20420;-73
2022/10/08 07:10:02;;;;;;;38.92;18.20;;;;;;;11.25;100.00;101695.88;5062280;28;20074;-72
2022/10/08 07:12:28;;;;;;;37.97;18.08;;;;;;;11.52;100.00;101698.72;5060486;28;20041;-72
2022/10/08 07:14:54;;;;;;;33.22;16.80;;;;;;;11.64;100.00;101695.81;5061224;28;20500;-71
2022/10/08 07:17:19;;;;;;;35.05;17.52;;;;;;;12.16;100.00;101691.94;5063226;28;20033;-73
2022/10/08 07:19:45;;;;;;;33.70;17.73;;;;;;;12.21;100.00;101698.34;5055562;28;20321;-73
2022/10/08 07:22:10;;;;;;;36.40;15.52;;;;;;;12.14;100.00;101705.09;5065069;28;20044;-75
2022/10/08 07:24:35;;;;;;;27.80;14.60;;;;;;;12.01;100.00;101708.00;5062070;28;20095;-73
2022/10/08 07:27:01;;;;;;;31.75;15.23;;;;;;;11.79;100.00;101709.16;5080680;28;20405;-72
2022/10/08 07:29:26;;;;;;;25.77;14.82;;;;;;;11.68;100.00;101710.16;5064443;28;20029;-71
2022/10/08 07:31:52;;;;;;;37.85;15.07;;;;;;;11.83;100.00;101713.13;5066668;28;20040;-71
2022/10/08 07:34:18;;;;;;;32.78;15.23;;;;;;;12.36;100.00;101711.69;5066479;28;20089;-72
2022/10/08 07:36:43;;;;;;;32.83;14.05;;;;;;;12.48;100.00;101711.50;5063925;28;20401;-72
2022/10/08 07:39:14;;;;;;;33.28;12.93;;;;;;;12.87;100.00;101716.44;5063926;28;20036;-72
2022/10/08 07:41:40;;;;;;;24.42;12.77;;;;;;;13.57;98.79;101706.91;5064339;28;20040;-72
2022/10/08 07:44:06;;;;;;;24.70;11.30;;;;;;;14.16;95.35;101714.03;5061753;28;20047;-72
2022/10/08 07:46:34;;;;;;;28.05;13.88;;;;;;;14.12;91.99;101717.94;5065144;28;20032;-71
2022/10/08 07:49:01;;;;;;;23.65;11.57;;;;;;;14.76;90.45;101710.47;5061740;28;20082;-72
2022/10/08 07:51:31;;;;;;;24.05;11.55;;;;;;;14.78;88.74;101713.72;5060165;28;20047;-71
2022/10/08 07:53:58;;;;;;;20.10;10.35;;;;;;;14.61;87.70;101710.28;5092469;28;20043;-72
2022/10/08 07:56:23;;;;;;;24.77;10.38;;;;;;;14.76;88.24;101720.91;5061712;28;20091;-71
2022/10/08 07:58:49;;;;;;;21.48;9.80;;;;;;;14.87;87.04;101727.63;5065747;28;20033;-72
2022/10/08 08:01:20;;;;;;;19.42;9.88;;;;;;;15.22;85.37;101723.06;5062939;28;20071;-71
2022/10/08 08:03:52;;;;;;;22.20;9.73;;;;;;;15.54;83.28;101723.03;5063124;28;20432;-71
2022/10/08 08:06:18;;;;;;;19.90;9.45;;;;;;;15.63;81.54;101729.03;5064795;28;20032;-72
2022/10/08 08:08:44;;;;;;;19.98;8.68;;;;;;;15.82;80.52;101734.91;5063032;28;20033;-72
2022/10/08 08:11:12;;;;;;;17.70;8.05;;;;;;;15.77;80.23;101751.13;5062874;28;20051;-73
2022/10/08 08:13:39;;;;;;;16.23;8.20;;;;;;;15.63;81.18;101746.53;5059216;28;20029;-72
2022/10/08 08:16:08;;;;;;;18.83;8.57;;;;;;;15.53;81.04;101746.72;5061874;28;20025;-73
2022/10/08 08:18:36;;;;;;;15.75;8.13;;;;;;;15.73;80.41;101758.47;5059877;28;20020;-71
2022/10/08 08:21:05;;;;;;;22.67;9.23;;;;;;;14.91;83.31;101765.47;5062647;28;20071;-72
2022/10/08 08:23:32;;;;;;;19.88;9.55;;;;;;;14.72;85.79;101767.41;5059518;28;20052;-72
2022/10/08 08:26:09;;;;;;;19.30;8.65;;;;;;;15.64;82.40;101758.63;5058198;28;20097;-72
2022/10/08 08:28:35;;;;;;;19.55;8.23;;;;;;;16.30;78.58;101761.91;5057538;28;20035;-72
2022/10/08 08:31:15;;;;;;;19.98;8.32;;;;;;;16.99;75.86;101762.03;5044219;28;20056;-73
2022/10/08 08:33:41;;;;;;;19.17;8.77;;;;;;;17.26;75.24;101757.22;5062242;28;20074;-72
2022/10/08 08:36:08;;;;;;;21.83;8.68;;;;;;;17.21;73.39;101760.34;5061538;28;20056;-72
2022/10/08 08:38:35;;;;;;;15.82;7.75;;;;;;;17.28;73.32;101755.25;5064642;28;20037;-72
2022/10/08 08:41:22;;;;;;;15.93;8.10;;;;;;;17.24;73.63;101772.31;5059416;28;20097;-72
2022/10/08 08:43:47;;;;;;;16.50;7.93;;;;;;;17.05;72.53;101777.03;5058550;28;20029;-72
2022/10/08 08:46:18;;;;;;;17.05;8.02;;;;;;;16.58;75.41;101785.00;5060356;28;20064;-72
2022/10/08 08:48:45;;;;;;;19.40;8.48;;;;;;;15.96;77.44;101787.34;5061717;28;20028;-71
2022/10/08 08:51:11;;;;;;;23.58;8.20;;;;;;;15.52;79.84;101792.13;5060526;28;20111;-73
2022/10/08 08:53:37;;;;;;;17.30;8.43;;;;;;;15.60;80.07;101791.31;5061496;28;20535;-72
2022/10/08 08:56:06;;;;;;;19.15;8.77;;;;;;;16.21;78.02;101789.06;5061358;28;20139;-73
2022/10/08 08:58:49;;;;;;;21.90;7.85;;;;;;;16.02;76.46;101803.34;5062528;28;20551;-72
2022/10/08 09:01:29;;;;;;;16.40;7.53;;;;;;;15.62;76.81;101798.00;5061348;28;20060;-71
2022/10/08 09:04:02;;;;;;;15.18;6.43;;;;;;;16.06;77.27;101799.41;5060775;28;20033;-71
2022/10/08 09:06:28;;;;;;;16.77;7.53;;;;;;;15.61;77.35;101801.59;5053796;28;20033;-74
2022/10/08 09:09:04;;;;;;;17.85;7.53;;;;;;;15.10;79.86;101809.56;5064241;28;20039;-73
2022/10/08 09:11:30;;;;;;;19.23;7.90;;;;;;;15.19;80.42;101811.22;5060740;28;20051;-74
2022/10/08 09:14:02;;;;;;;15.18;7.53;;;;;;;15.45;78.99;101814.69;5047025;28;20032;-72
2022/10/08 09:16:28;;;;;;;17.70;7.25;;;;;;;15.13;81.15;101824.94;5071086;28;20112;-71
2022/10/08 09:18:54;;;;;;;21.58;6.65;;;;;;;14.88;80.98;101824.06;5056990;28;20058;-74
2022/10/08 09:21:20;;;;;;;14.20;6.60;;;;;;;14.70;82.45;101833.81;5060411;28;20033;-73
2022/10/08 09:23:46;;;;;;;13.18;6.47;;;;;;;14.60;81.85;101826.09;5063765;28;20143;-73
2022/10/08 09:26:18;;;;;;;19.83;6.85;;;;;;;14.49;81.88;101828.97;5061951;28;20141;-73
2022/10/08 09:28:49;;;;;;;18.02;6.68;;;;;;;14.76;82.81;101828.75;5059968;28;20028;-71
2022/10/08 09:31:36;;;;;;;12.18;5.38;;;;;;;14.95;79.58;101835.50;5050516;28;20040;-72
2022/10/08 09:34:16;;;;;;;14.52;4.93;;;;;;;14.84;79.04;101830.56;5059806;28;20039;-72
2022/10/08 09:36:49;;;;;;;18.02;5.38;;;;;;;14.93;78.87;101840.06;5066507;28;20042;-73
2022/10/08 09:39:15;;;;;;;12.57;4.57;;;;;;;14.60;77.02;101845.19;5059183;28;20033;-74
2022/10/08 09:41:40;;;;;;;11.60;4.90;;;;;;;14.44;78.00;101850.31;5063192;28;20515;-72
2022/10/08 09:44:18;;;;;;;10.30;3.75;;;;;;;14.31;77.92;101849.91;5063057;28;20028;-74
2022/10/08 09:46:45;;;;;;;11.23;3.30;;;;;;;14.23;78.14;101857.69;5065377;28;20435;-72
2022/10/08 09:49:27;;;;;;;14.07;3.53;;;;;;;14.44;79.19;101855.50;5063483;28;20515;-74
2022/10/08 09:51:54;;;;;;;11.80;3.53;;;;;;;14.75;78.62;101860.25;5061460;28;20043;-73
2022/10/08 09:54:27;;;;;;;10.00;3.45;;;;;;;14.75;77.83;101863.69;5066328;28;20029;-74
2022/10/08 09:56:56;;;;;;;12.73;3.40;;;;;;;14.95;76.84;101863.41;5066153;28;20491;-75
2022/10/08 09:59:25;;;;;;;9.25;3.10;;;;;;;15.03;77.08;101866.06;5067206;28;20024;-72
2022/10/08 10:01:52;;;;;;;7.97;2.35;;;;;;;15.05;76.19;101871.09;5065620;28;20032;-72
2022/10/08 10:04:27;;;;;;;10.60;2.22;;;;;;;15.09;75.15;101872.44;5060750;28;20111;-73
2022/10/08 10:06:54;;;;;;;11.65;3.05;;;;;;;15.04;73.68;101859.84;5074244;28;20086;-73
2022/10/08 10:09:38;;;;;;;7.43;1.80;;;;;;;15.11;74.25;101868.69;5059435;28;20028;-73
2022/10/08 10:12:16;;;;;;;7.80;1.52;;;;;;;15.06;70.78;101862.31;5059401;28;20057;-72
2022/10/08 10:14:49;;;;;;;8.63;1.40;;;;;;;15.02;71.52;101868.84;5059030;28;20542;-73
2022/10/08 10:17:19;;;;;;;8.43;1.63;;;;;;;15.18;71.99;101861.84;5062684;28;20042;-73
2022/10/08 10:20:03;;;;;;;9.02;1.70;;;;;;;15.34;70.84;101855.81;5059847;28;20036;-72
2022/10/08 10:22:42;;;;;;;8.20;1.38;;;;;;;15.62;69.79;101852.91;5062595;28;20110;-76
2022/10/08 10:25:44;;;;;;;7.88;1.40;;;;;;;15.94;71.68;101862.53;5054770;28;20087;-74
2022/10/08 10:28:19;;;;;;;11.32;1.88;;;;;;;16.05;70.73;101868.41;5064826;28;20096;-74
2022/10/08 10:31:02;;;;;;;7.43;1.48;;;;;;;16.20;69.23;101864.16;5060049;28;20059;-74
2022/10/08 10:33:33;;;;;;;7.88;1.55;;;;;;;16.27;67.58;101865.09;5064994;28;20059;-73
2022/10/08 10:36:04;;;;;;;9.23;1.13;;;;;;;16.34;68.60;101868.66;5063049;28;20091;-73
2022/10/08 10:38:34;;;;;;;8.13;1.40;;;;;;;16.25;65.32;101872.28;5098772;28;20043;-74
2022/10/08 10:41:03;;;;;;;10.68;0.80;;;;;;;16.14;62.60;101872.63;5061995;28;20040;-76
2022/10/08 10:43:36;;;;;;;7.25;1.25;;;;;;;15.80;63.69;101885.94;5063032;28;20439;-73
2022/10/08 10:46:32;;;;;;;8.38;1.40;;;;;;;15.82;64.57;101878.75;5062762;28;20404;-74
2022/10/08 10:48:58;;;;;;;7.18;1.00;;;;;;;15.49;61.37;101886.56;5063608;28;20762;-75
2022/10/08 10:51:30;;;;;;;5.43;0.70;;;;;;;15.36;59.16;101885.22;5048618;28;20048;-75
2022/10/08 10:54:23;;;;;;;4.22;0.93;;;;;;;15.20;59.96;101893.03;5070122;28;20051;-73
2022/10/08 10:57:29;;;;;;;4.53;0.75;;;;;;;15.07;60.06;101890.88;5069140;28;20111;-76
2022/10/08 11:00:14;;;;;;;5.65;0.90;;;;;;;15.09;58.39;101898.56;5045699;28;20047;-74
2022/10/08 11:02:45;;;;;;;5.57;1.00;;;;;;;15.15;58.28;101897.91;5067006;28;20110;-75
2022/10/08 11:05:21;;;;;;;4.38;0.70;;;;;;;15.15;60.23;101905.75;5062317;28;20024;-75
2022/10/08 11:08:13;;;;;;;3.25;0.80;;;;;;;15.22;59.27;101901.53;5068617;28;20040;-74
2022/10/08 11:10:51;;;;;;;4.25;0.88;;;;;;;15.33;57.44;101900.41;5050439;28;20815;-75
2022/10/08 11:13:43;;;;;;;3.50;0.80;;;;;;;15.38;58.71;101898.13;5066746;28;20116;-75
2022/10/08 11:16:23;;;;;;;3.42;0.98;;;;;;;15.64;59.45;101898.00;5068596;28;20552;-74
2022/10/08 11:18:53;;;;;;;4.22;0.80;;;;;;;15.67;57.23;101889.84;5068078;28;20644;-75
2022/10/08 11:21:51;;;;;;;2.70;0.73;;;;;;;15.80;58.15;101899.00;5069535;28;20041;-74
2022/10/08 11:24:52;;;;;;;4.32;0.80;;;;;;;15.89;58.94;101890.19;5064442;28;20032;-83
2022/10/08 11:27:42;;;;;;;9.05;0.98;;;;;;;15.88;60.10;101893.75;5006499;28;20036;-76
2022/10/08 11:30:13;;;;;;;7.10;0.80;;;;;;;15.87;58.82;101897.38;5064122;28;20031;-76
2022/10/08 11:32:41;;;;;;;4.28;0.90;;;;;;;15.90;59.67;101891.81;5067305;28;20071;-74
2022/10/08 11:35:22;;;;;;;6.00;1.05;;;;;;;15.96;60.54;101878.88;5065129;28;20039;-75
2022/10/08 11:38:01;;;;;;;8.13;1.30;;;;;;;16.10;60.08;101890.47;5096762;28;20032;-77